Terminal Aerodrome Forecast
Issued by NWS Mobile, AL

Home | Current Version | Previous Version | Text Only | Print | Product List | Glossary On
Versions: 1 2 3 4 5 6 7 8 9 10 11 12
000
FTUS44 KMOB 251730
TAFPNS
TAF
KPNS 251730Z 2518/2618 10005KT P6SM SKC
     FM260100 15003KT P6SM SKC
     FM261200 VRB02KT 5SM BR BKN250
     FM261500 14005KT P6SM SCT250=

USA.gov is the U.S. government's official web portal to all federal, state and local government web resources and services.